sensor_id;sensor_type;location;lat;lon;timestamp;pressure;altitude;pressure_sealevel;temperature;humidity
39487;BME280;25173;50.430;18.926;2023-03-03T00:01:09;98498.28;;;3.73;53.25
39487;BME280;25173;50.430;18.926;2023-03-03T00:04:10;98489.59;;;3.71;53.36
39487;BME280;25173;50.430;18.926;2023-03-03T00:07:10;98473.06;;;3.68;53.38
39487;BME280;25173;50.430;18.926;2023-03-03T00:10:12;98477.78;;;3.72;53.52
39487;BME280;25173;50.430;18.926;2023-03-03T00:13:18;98476.97;;;3.72;53.54
39487;BME280;25173;50.430;18.926;2023-03-03T00:16:31;98473.69;;;3.70;53.50
39487;BME280;25173;50.430;18.926;2023-03-03T00:19:37;98479.94;;;3.64;53.54
39487;BME280;25173;50.430;18.926;2023-03-03T00:22:39;98484.13;;;3.60;54.03
39487;BME280;25173;50.430;18.926;2023-03-03T00:25:42;98479.63;;;3.54;54.18
39487;BME280;25173;50.430;18.926;2023-03-03T00:28:49;98479.91;;;3.45;54.31
39487;BME280;25173;50.430;18.926;2023-03-03T00:31:50;98486.13;;;3.46;53.97
39487;BME280;25173;50.430;18.926;2023-03-03T00:34:52;98488.59;;;3.47;53.56
39487;BME280;25173;50.430;18.926;2023-03-03T00:37:58;98493.97;;;3.47;53.42
39487;BME280;25173;50.430;18.926;2023-03-03T00:40:59;98496.50;;;3.42;53.03
39487;BME280;25173;50.430;18.926;2023-03-03T00:47:36;98495.72;;;3.35;53.18
39487;BME280;25173;50.430;18.926;2023-03-03T00:50:39;98503.59;;;3.37;53.30
39487;BME280;25173;50.430;18.926;2023-03-03T00:53:42;98489.31;;;3.36;53.29
39487;BME280;25173;50.430;18.926;2023-03-03T00:56:43;98483.50;;;3.39;52.97
39487;BME280;25173;50.430;18.926;2023-03-03T00:59:44;98472.94;;;3.38;53.05
39487;BME280;25173;50.430;18.926;2023-03-03T01:02:45;98475.00;;;3.36;53.18
39487;BME280;25173;50.430;18.926;2023-03-03T01:05:48;98467.16;;;3.34;53.32
39487;BME280;25173;50.430;18.926;2023-03-03T01:08:49;98469.84;;;3.34;53.72
39487;BME280;25173;50.430;18.926;2023-03-03T01:11:50;98469.91;;;3.28;53.79
39487;BME280;25173;50.430;18.926;2023-03-03T01:14:51;98467.28;;;3.21;54.08
39487;BME280;25173;50.430;18.926;2023-03-03T01:17:54;98466.66;;;3.19;54.40
39487;BME280;25173;50.430;18.926;2023-03-03T01:20:55;98451.53;;;3.25;54.12
39487;BME280;25173;50.430;18.926;2023-03-03T01:23:55;98441.13;;;3.28;54.03
39487;BME280;25173;50.430;18.926;2023-03-03T01:26:56;98453.53;;;3.29;54.14
39487;BME280;25173;50.430;18.926;2023-03-03T01:29:57;98449.41;;;3.27;54.22
39487;BME280;25173;50.430;18.926;2023-03-03T01:32:58;98443.00;;;3.28;54.00
39487;BME280;25173;50.430;18.926;2023-03-03T01:35:58;98439.88;;;3.31;53.81
39487;BME280;25173;50.430;18.926;2023-03-03T01:38:59;98437.59;;;3.28;53.88
39487;BME280;25173;50.430;18.926;2023-03-03T01:42:03;98441.19;;;3.22;54.05
39487;BME280;25173;50.430;18.926;2023-03-03T01:51:36;98429.38;;;3.23;54.34
39487;BME280;25173;50.430;18.926;2023-03-03T01:54:44;98427.38;;;3.18;54.37
39487;BME280;25173;50.430;18.926;2023-03-03T01:57:55;98437.88;;;3.20;54.48
39487;BME280;25173;50.430;18.926;2023-03-03T02:01:02;98432.97;;;3.17;54.45
39487;BME280;25173;50.430;18.926;2023-03-03T02:04:06;98436.75;;;3.09;54.03
39487;BME280;25173;50.430;18.926;2023-03-03T02:07:09;98436.81;;;3.02;53.58
39487;BME280;25173;50.430;18.926;2023-03-03T02:10:14;98428.78;;;2.96;54.21
39487;BME280;25173;50.430;18.926;2023-03-03T02:13:15;98438.25;;;2.98;53.65
39487;BME280;25173;50.430;18.926;2023-03-03T02:16:16;98433.09;;;2.97;53.64
39487;BME280;25173;50.430;18.926;2023-03-03T02:19:25;98440.38;;;2.96;53.98
39487;BME280;25173;50.430;18.926;2023-03-03T02:22:45;98441.88;;;2.86;54.28
39487;BME280;25173;50.430;18.926;2023-03-03T02:28:57;98448.34;;;2.78;54.62
39487;BME280;25173;50.430;18.926;2023-03-03T02:31:58;98445.81;;;2.83;54.41
39487;BME280;25173;50.430;18.926;2023-03-03T02:34:59;98442.66;;;2.93;54.17
39487;BME280;25173;50.430;18.926;2023-03-03T02:38:16;98444.31;;;2.94;54.03
39487;BME280;25173;50.430;18.926;2023-03-03T02:41:49;98438.31;;;2.92;53.95
39487;BME280;25173;50.430;18.926;2023-03-03T02:44:48;98436.88;;;2.89;53.75
39487;BME280;25173;50.430;18.926;2023-03-03T02:47:50;98440.63;;;2.88;53.69
39487;BME280;25173;50.430;18.926;2023-03-03T02:50:51;98439.19;;;2.86;53.65
39487;BME280;25173;50.430;18.926;2023-03-03T02:53:52;98440.22;;;2.85;53.88
39487;BME280;25173;50.430;18.926;2023-03-03T02:56:53;98450.44;;;2.76;54.27
39487;BME280;25173;50.430;18.926;2023-03-03T02:59:54;98452.13;;;2.70;54.47
39487;BME280;25173;50.430;18.926;2023-03-03T03:02:55;98448.59;;;2.70;54.33
39487;BME280;25173;50.430;18.926;2023-03-03T03:05:56;98452.34;;;2.69;54.21
39487;BME280;25173;50.430;18.926;2023-03-03T03:08:58;98443.44;;;2.68;54.42
39487;BME280;25173;50.430;18.926;2023-03-03T03:12:01;98428.75;;;2.71;54.52
39487;BME280;25173;50.430;18.926;2023-03-03T03:15:04;98432.06;;;2.73;54.77
39487;BME280;25173;50.430;18.926;2023-03-03T03:18:05;98429.13;;;2.74;54.55
39487;BME280;25173;50.430;18.926;2023-03-03T03:21:10;98433.72;;;2.67;54.46
39487;BME280;25173;50.430;18.926;2023-03-03T03:24:12;98433.34;;;2.64;54.31
39487;BME280;25173;50.430;18.926;2023-03-03T03:27:17;98421.78;;;2.63;54.60
39487;BME280;25173;50.430;18.926;2023-03-03T03:30:19;98430.44;;;2.65;54.59
39487;BME280;25173;50.430;18.926;2023-03-03T03:33:21;98405.22;;;2.60;54.45
39487;BME280;25173;50.430;18.926;2023-03-03T03:36:23;98411.94;;;2.51;54.86
39487;BME280;25173;50.430;18.926;2023-03-03T03:39:24;98413.63;;;2.39;55.14
39487;BME280;25173;50.430;18.926;2023-03-03T03:42:26;98421.06;;;2.43;55.48
39487;BME280;25173;50.430;18.926;2023-03-03T03:45:27;98422.69;;;2.51;55.43
39487;BME280;25173;50.430;18.926;2023-03-03T03:48:28;98428.44;;;2.54;55.39
39487;BME280;25173;50.430;18.926;2023-03-03T03:51:29;98420.63;;;2.46;55.17
39487;BME280;25173;50.430;18.926;2023-03-03T03:54:31;98435.97;;;2.39;55.72
39487;BME280;25173;50.430;18.926;2023-03-03T03:57:31;98437.66;;;2.33;55.68
39487;BME280;25173;50.430;18.926;2023-03-03T04:00:34;98434.34;;;2.31;55.78
39487;BME280;25173;50.430;18.926;2023-03-03T04:03:35;98434.75;;;2.35;55.65
39487;BME280;25173;50.430;18.926;2023-03-03T04:06:40;98419.41;;;2.42;55.47
39487;BME280;25173;50.430;18.926;2023-03-03T04:09:40;98426.06;;;2.33;55.17
39487;BME280;25173;50.430;18.926;2023-03-03T04:12:41;98421.56;;;2.27;55.39
39487;BME280;25173;50.430;18.926;2023-03-03T04:15:46;98424.88;;;2.29;55.65
39487;BME280;25173;50.430;18.926;2023-03-03T04:18:47;98436.03;;;2.26;55.68
39487;BME280;25173;50.430;18.926;2023-03-03T04:21:50;98439.41;;;2.08;56.50
39487;BME280;25173;50.430;18.926;2023-03-03T04:24:52;98440.91;;;1.98;56.92
39487;BME280;25173;50.430;18.926;2023-03-03T04:27:53;98447.72;;;1.93;57.42
39487;BME280;25173;50.430;18.926;2023-03-03T04:30:55;98451.72;;;1.78;58.23
39487;BME280;25173;50.430;18.926;2023-03-03T04:33:58;98452.31;;;1.80;58.33
39487;BME280;25173;50.430;18.926;2023-03-03T04:36:59;98448.84;;;1.73;58.48
39487;BME280;25173;50.430;18.926;2023-03-03T04:40:03;98438.34;;;1.58;58.42
39487;BME280;25173;50.430;18.926;2023-03-03T04:43:04;98444.16;;;1.55;58.48
39487;BME280;25173;50.430;18.926;2023-03-03T04:46:05;98448.28;;;1.44;58.33
39487;BME280;25173;50.430;18.926;2023-03-03T04:49:06;98447.06;;;1.40;58.35
39487;BME280;25173;50.430;18.926;2023-03-03T04:52:09;98453.88;;;1.30;58.44
39487;BME280;25173;50.430;18.926;2023-03-03T04:55:11;98463.38;;;1.26;58.87
39487;BME280;25173;50.430;18.926;2023-03-03T04:58:14;98462.75;;;1.30;58.84
39487;BME280;25173;50.430;18.926;2023-03-03T05:01:15;98451.38;;;1.41;58.75
39487;BME280;25173;50.430;18.926;2023-03-03T05:04:16;98465.38;;;1.56;58.88
39487;BME280;25173;50.430;18.926;2023-03-03T05:07:17;98463.94;;;1.67;58.68
39487;BME280;25173;50.430;18.926;2023-03-03T05:10:19;98463.94;;;1.67;58.50
39487;BME280;25173;50.430;18.926;2023-03-03T05:13:20;98455.69;;;1.69;58.66
39487;BME280;25173;50.430;18.926;2023-03-03T05:16:21;98448.59;;;1.87;58.79
39487;BME280;25173;50.430;18.926;2023-03-03T05:19:21;98448.53;;;2.01;58.44
39487;BME280;25173;50.430;18.926;2023-03-03T05:22:23;98459.50;;;2.06;58.11
39487;BME280;25173;50.430;18.926;2023-03-03T05:25:24;98464.22;;;2.10;58.23
39487;BME280;25173;50.430;18.926;2023-03-03T05:28:25;98474.19;;;1.97;58.36
39487;BME280;25173;50.430;18.926;2023-03-03T05:31:25;98476.69;;;1.78;58.73
39487;BME280;25173;50.430;18.926;2023-03-03T05:34:26;98475.06;;;1.77;58.89
39487;BME280;25173;50.430;18.926;2023-03-03T05:37:27;98478.94;;;1.94;59.17
39487;BME280;25173;50.430;18.926;2023-03-03T05:40:27;98484.28;;;2.01;58.95
39487;BME280;25173;50.430;18.926;2023-03-03T05:43:28;98479.47;;;2.16;59.06
39487;BME280;25173;50.430;18.926;2023-03-03T05:46:29;98493.88;;;2.35;58.69
39487;BME280;25173;50.430;18.926;2023-03-03T05:49:29;98497.56;;;2.41;58.46
39487;BME280;25173;50.430;18.926;2023-03-03T05:52:30;98510.88;;;2.29;58.56
39487;BME280;25173;50.430;18.926;2023-03-03T05:55:31;98508.66;;;2.06;59.00
39487;BME280;25173;50.430;18.926;2023-03-03T05:58:31;98515.72;;;1.87;59.48
39487;BME280;25173;50.430;18.926;2023-03-03T06:01:32;98497.38;;;1.65;60.01
39487;BME280;25173;50.430;18.926;2023-03-03T06:04:33;98485.78;;;1.71;59.95
39487;BME280;25173;50.430;18.926;2023-03-03T06:07:34;98492.41;;;1.81;59.91
39487;BME280;25173;50.430;18.926;2023-03-03T06:10:34;98505.41;;;1.91;59.81
39487;BME280;25173;50.430;18.926;2023-03-03T06:13:38;98505.41;;;1.91;60.01
39487;BME280;25173;50.430;18.926;2023-03-03T06:16:40;98520.06;;;1.82;60.09
39487;BME280;25173;50.430;18.926;2023-03-03T06:19:41;98527.31;;;1.68;60.67
39487;BME280;25173;50.430;18.926;2023-03-03T06:22:42;98517.22;;;1.70;60.66
39487;BME280;25173;50.430;18.926;2023-03-03T06:25:42;98524.59;;;1.94;60.61
39487;BME280;25173;50.430;18.926;2023-03-03T06:28:43;98518.34;;;2.14;60.32
39487;BME280;25173;50.430;18.926;2023-03-03T06:31:44;98516.00;;;2.30;60.39
39487;BME280;25173;50.430;18.926;2023-03-03T06:34:45;98518.41;;;2.45;60.21
39487;BME280;25173;50.430;18.926;2023-03-03T06:37:45;98521.91;;;2.52;60.29
39487;BME280;25173;50.430;18.926;2023-03-03T06:40:46;98511.56;;;2.56;60.35
39487;BME280;25173;50.430;18.926;2023-03-03T06:43:47;98508.41;;;2.65;60.51
39487;BME280;25173;50.430;18.926;2023-03-03T06:46:47;98523.44;;;2.80;60.31
39487;BME280;25173;50.430;18.926;2023-03-03T06:49:48;98502.06;;;2.91;60.23
39487;BME280;25173;50.430;18.926;2023-03-03T06:52:59;98490.19;;;2.99;60.36
39487;BME280;25173;50.430;18.926;2023-03-03T06:56:07;98469.03;;;3.09;60.46
39487;BME280;25173;50.430;18.926;2023-03-03T06:59:16;98481.34;;;3.23;60.46
39487;BME280;25173;50.430;18.926;2023-03-03T07:02:18;98493.03;;;3.35;60.47
39487;BME280;25173;50.430;18.926;2023-03-03T07:05:26;98477.50;;;3.37;60.45
39487;BME280;25173;50.430;18.926;2023-03-03T07:08:30;98487.84;;;3.40;60.29
39487;BME280;25173;50.430;18.926;2023-03-03T07:11:31;98502.34;;;3.39;60.52
39487;BME280;25173;50.430;18.926;2023-03-03T07:14:36;98510.22;;;3.34;60.77
39487;BME280;25173;50.430;18.926;2023-03-03T07:17:44;98511.03;;;3.35;60.68
39487;BME280;25173;50.430;18.926;2023-03-03T07:20:46;98513.09;;;3.39;60.73
39487;BME280;25173;50.430;18.926;2023-03-03T07:23:49;98508.53;;;3.40;60.89
39487;BME280;25173;50.430;18.926;2023-03-03T07:26:50;98508.56;;;3.58;60.97
39487;BME280;25173;50.430;18.926;2023-03-03T07:29:53;98497.94;;;3.70;60.67
39487;BME280;25173;50.430;18.926;2023-03-03T07:32:56;98511.63;;;3.86;60.47
39487;BME280;25173;50.430;18.926;2023-03-03T07:35:58;98526.13;;;3.85;60.41
39487;BME280;25173;50.430;18.926;2023-03-03T07:39:01;98543.72;;;3.70;60.78
39487;BME280;25173;50.430;18.926;2023-03-03T07:45:29;98552.88;;;3.37;61.72
39487;BME280;25173;50.430;18.926;2023-03-03T07:48:35;98541.94;;;3.32;61.70
39487;BME280;25173;50.430;18.926;2023-03-03T07:51:38;98543.91;;;3.19;61.95
39487;BME280;25173;50.430;18.926;2023-03-03T07:54:42;98537.69;;;3.18;62.26
39487;BME280;25173;50.430;18.926;2023-03-03T07:57:51;98530.97;;;3.27;62.31
39487;BME280;25173;50.430;18.926;2023-03-03T08:07:22;98531.56;;;3.61;62.49
39487;BME280;25173;50.430;18.926;2023-03-03T08:10:34;98531.72;;;3.66;62.46
39487;BME280;25173;50.430;18.926;2023-03-03T08:13:40;98536.06;;;3.67;62.57
39487;BME280;25173;50.430;18.926;2023-03-03T08:16:42;98538.06;;;3.71;62.37
39487;BME280;25173;50.430;18.926;2023-03-03T08:19:42;98545.78;;;3.68;62.72
39487;BME280;25173;50.430;18.926;2023-03-03T08:22:43;98564.50;;;3.56;62.81
39487;BME280;25173;50.430;18.926;2023-03-03T08:25:44;98559.03;;;3.44;63.07
39487;BME280;25173;50.430;18.926;2023-03-03T08:28:45;98570.31;;;3.28;63.50
39487;BME280;25173;50.430;18.926;2023-03-03T08:31:45;98570.00;;;3.18;64.02
39487;BME280;25173;50.430;18.926;2023-03-03T08:34:46;98554.31;;;3.08;64.57
39487;BME280;25173;50.430;18.926;2023-03-03T08:37:47;98547.69;;;3.04;64.59
39487;BME280;25173;50.430;18.926;2023-03-03T08:40:48;98561.38;;;3.03;65.09
39487;BME280;25173;50.430;18.926;2023-03-03T08:43:49;98552.44;;;3.09;65.01
39487;BME280;25173;50.430;18.926;2023-03-03T08:46:49;98551.88;;;3.00;65.34
39487;BME280;25173;50.430;18.926;2023-03-03T08:49:50;98540.50;;;2.98;65.40
39487;BME280;25173;50.430;18.926;2023-03-03T08:52:51;98531.78;;;3.03;65.23
39487;BME280;25173;50.430;18.926;2023-03-03T08:55:51;98533.00;;;3.07;65.45
39487;BME280;25173;50.430;18.926;2023-03-03T08:58:52;98539.78;;;3.16;65.39
39487;BME280;25173;50.430;18.926;2023-03-03T09:01:53;98528.34;;;3.21;65.57
39487;BME280;25173;50.430;18.926;2023-03-03T09:04:54;98538.84;;;3.29;65.48
39487;BME280;25173;50.430;18.926;2023-03-03T09:07:55;98529.06;;;3.34;65.50
39487;BME280;25173;50.430;18.926;2023-03-03T09:10:55;98537.53;;;3.38;65.29
39487;BME280;25173;50.430;18.926;2023-03-03T09:14:12;98541.69;;;3.34;65.48
39487;BME280;25173;50.430;18.926;2023-03-03T09:17:33;98537.31;;;3.39;65.60
39487;BME280;25173;50.430;18.926;2023-03-03T09:20:39;98543.53;;;3.65;64.71
39487;BME280;25173;50.430;18.926;2023-03-03T09:23:53;98549.69;;;3.72;64.38
39487;BME280;25173;50.430;18.926;2023-03-03T09:26:56;98545.88;;;3.79;64.16
39487;BME280;25173;50.430;18.926;2023-03-03T09:30:01;98544.28;;;3.72;65.99
39487;BME280;25173;50.430;18.926;2023-03-03T09:33:30;98548.03;;;3.71;64.58
39487;BME280;25173;50.430;18.926;2023-03-03T09:36:36;98542.19;;;3.56;64.55
39487;BME280;25173;50.430;18.926;2023-03-03T09:39:37;98557.81;;;3.40;64.89
39487;BME280;25173;50.430;18.926;2023-03-03T09:45:52;98536.59;;;3.26;65.21
39487;BME280;25173;50.430;18.926;2023-03-03T09:52:52;98542.47;;;3.66;65.49
39487;BME280;25173;50.430;18.926;2023-03-03T09:56:20;98534.91;;;3.81;65.11
39487;BME280;25173;50.430;18.926;2023-03-03T10:02:41;98551.66;;;3.83;64.14
39487;BME280;25173;50.430;18.926;2023-03-03T10:05:53;98559.81;;;3.76;64.32
39487;BME280;25173;50.430;18.926;2023-03-03T10:12:04;98566.94;;;3.39;65.26
39487;BME280;25173;50.430;18.926;2023-03-03T10:15:35;98566.22;;;3.26;66.20
39487;BME280;25173;50.430;18.926;2023-03-03T10:18:57;98569.69;;;3.33;65.83
39487;BME280;25173;50.430;18.926;2023-03-03T10:25:42;98572.28;;;3.46;65.94
39487;BME280;25173;50.430;18.926;2023-03-03T10:39:21;98570.47;;;3.65;65.58
39487;BME280;25173;50.430;18.926;2023-03-03T10:48:42;98559.91;;;3.88;65.32
39487;BME280;25173;50.430;18.926;2023-03-03T11:02:05;98564.38;;;3.76;65.48
39487;BME280;25173;50.430;18.926;2023-03-03T11:08:46;98550.25;;;3.56;65.73
39487;BME280;25173;50.430;18.926;2023-03-03T11:11:52;98552.16;;;3.73;65.29
39487;BME280;25173;50.430;18.926;2023-03-03T11:15:17;98562.22;;;3.84;64.74
39487;BME280;25173;50.430;18.926;2023-03-03T11:18:34;98545.09;;;3.97;64.63
39487;BME280;25173;50.430;18.926;2023-03-03T11:25:29;98552.19;;;4.35;63.75
39487;BME280;25173;50.430;18.926;2023-03-03T11:35:18;98545.59;;;4.49;62.83
39487;BME280;25173;50.430;18.926;2023-03-03T11:38:46;98547.06;;;4.63;62.60
39487;BME280;25173;50.430;18.926;2023-03-03T11:42:10;98537.00;;;4.70;62.47
39487;BME280;25173;50.430;18.926;2023-03-03T11:45:18;98537.31;;;4.80;62.49
39487;BME280;25173;50.430;18.926;2023-03-03T11:51:52;98542.94;;;5.08;61.82
39487;BME280;25173;50.430;18.926;2023-03-03T11:55:03;98540.59;;;5.12;61.77
39487;BME280;25173;50.430;18.926;2023-03-03T11:58:30;98538.66;;;5.42;61.74
39487;BME280;25173;50.430;18.926;2023-03-03T12:01:41;98545.06;;;5.60;61.04
39487;BME280;25173;50.430;18.926;2023-03-03T12:04:49;98545.66;;;5.73;60.29
39487;BME280;25173;50.430;18.926;2023-03-03T12:08:27;98547.09;;;5.76;59.79
39487;BME280;25173;50.430;18.926;2023-03-03T12:11:57;98532.91;;;5.92;59.80
39487;BME280;25173;50.430;18.926;2023-03-03T12:15:08;98542.75;;;6.10;59.24
39487;BME280;25173;50.430;18.926;2023-03-03T12:18:31;98531.59;;;6.06;58.05
39487;BME280;25173;50.430;18.926;2023-03-03T12:24:57;98524.41;;;6.23;57.95
39487;BME280;25173;50.430;18.926;2023-03-03T12:28:14;98520.63;;;6.36;57.98
39487;BME280;25173;50.430;18.926;2023-03-03T12:34:40;98521.97;;;6.22;57.08
39487;BME280;25173;50.430;18.926;2023-03-03T12:38:26;98534.78;;;6.15;56.24
39487;BME280;25173;50.430;18.926;2023-03-03T12:41:10;98518.19;;;5.88;57.38
39487;BME280;25173;50.430;18.926;2023-03-03T12:47:45;98512.22;;;5.98;57.95
39487;BME280;25173;50.430;18.926;2023-03-03T12:50:59;98513.34;;;6.25;58.47
39487;BME280;25173;50.430;18.926;2023-03-03T12:57:15;98511.00;;;6.69;57.90
39487;BME280;25173;50.430;18.926;2023-03-03T13:00:27;98508.22;;;6.63;57.12
39487;BME280;25173;50.430;18.926;2023-03-03T13:03:56;98507.59;;;6.73;56.91
39487;BME280;25173;50.430;18.926;2023-03-03T13:07:16;98507.22;;;6.81;56.44
39487;BME280;25173;50.430;18.926;2023-03-03T13:10:35;98510.19;;;6.68;56.74
39487;BME280;25173;50.430;18.926;2023-03-03T13:27:06;98502.88;;;6.69;56.64
39487;BME280;25173;50.430;18.926;2023-03-03T13:33:22;98511.19;;;6.39;56.60
39487;BME280;25173;50.430;18.926;2023-03-03T13:36:38;98505.00;;;6.27;56.95
39487;BME280;25173;50.430;18.926;2023-03-03T13:43:09;98501.19;;;6.51;57.10
39487;BME280;25173;50.430;18.926;2023-03-03T13:46:17;98498.88;;;6.43;56.97
39487;BME280;25173;50.430;18.926;2023-03-03T13:49:39;98502.91;;;6.29;56.86
39487;BME280;25173;50.430;18.926;2023-03-03T13:52:53;98500.09;;;6.00;57.10
39487;BME280;25173;50.430;18.926;2023-03-03T13:59:21;98504.28;;;5.73;57.87
39487;BME280;25173;50.430;18.926;2023-03-03T14:02:47;98507.91;;;5.43;57.97
39487;BME280;25173;50.430;18.926;2023-03-03T14:05:51;98507.50;;;5.17;58.49
39487;BME280;25173;50.430;18.926;2023-03-03T14:18:38;98496.75;;;4.98;59.59
39487;BME280;25173;50.430;18.926;2023-03-03T14:25:13;98499.88;;;5.14;59.49
39487;BME280;25173;50.430;18.926;2023-03-03T14:28:15;98504.66;;;5.12;59.11
39487;BME280;25173;50.430;18.926;2023-03-03T14:31:21;98502.88;;;5.05;59.53
39487;BME280;25173;50.430;18.926;2023-03-03T14:37:48;98495.13;;;4.97;59.76
39487;BME280;25173;50.430;18.926;2023-03-03T14:41:10;98489.59;;;4.92;59.91
39487;BME280;25173;50.430;18.926;2023-03-03T14:47:27;98488.09;;;4.96;59.97
39487;BME280;25173;50.430;18.926;2023-03-03T14:50:35;98506.22;;;4.89;59.92
39487;BME280;25173;50.430;18.926;2023-03-03T14:53:38;98492.09;;;4.76;60.13
39487;BME280;25173;50.430;18.926;2023-03-03T14:56:56;98486.19;;;4.67;60.59
39487;BME280;25173;50.430;18.926;2023-03-03T15:00:03;98479.50;;;4.58;60.36
39487;BME280;25173;50.430;18.926;2023-03-03T15:06:49;98483.72;;;4.36;61.15
39487;BME280;25173;50.430;18.926;2023-03-03T15:09:50;98472.13;;;4.35;60.90
39487;BME280;25173;50.430;18.926;2023-03-03T15:12:51;98476.22;;;4.38;60.77
39487;BME280;25173;50.430;18.926;2023-03-03T15:16:01;98468.50;;;4.41;60.87
39487;BME280;25173;50.430;18.926;2023-03-03T15:19:35;98466.84;;;4.40;60.91
39487;BME280;25173;50.430;18.926;2023-03-03T15:35:58;98480.69;;;4.62;60.90
39487;BME280;25173;50.430;18.926;2023-03-03T15:39:13;98472.97;;;4.65;61.01
39487;BME280;25173;50.430;18.926;2023-03-03T15:42:35;98472.88;;;4.72;61.04
39487;BME280;25173;50.430;18.926;2023-03-03T16:03:01;98468.22;;;4.31;61.41
39487;BME280;25173;50.430;18.926;2023-03-03T16:06:29;98472.47;;;4.39;61.45
39487;BME280;25173;50.430;18.926;2023-03-03T16:13:21;98481.84;;;4.36;61.39
39487;BME280;25173;50.430;18.926;2023-03-03T16:16:36;98482.91;;;4.35;61.41
39487;BME280;25173;50.430;18.926;2023-03-03T16:22:55;98471.91;;;4.37;61.61
39487;BME280;25173;50.430;18.926;2023-03-03T16:33:02;98472.69;;;4.55;61.37
39487;BME280;25173;50.430;18.926;2023-03-03T16:43:11;98469.25;;;4.78;61.71
39487;BME280;25173;50.430;18.926;2023-03-03T16:46:37;98469.28;;;4.90;61.79
39487;BME280;25173;50.430;18.926;2023-03-03T16:49:58;98475.06;;;4.93;61.67
39487;BME280;25173;50.430;18.926;2023-03-03T16:57:01;98481.50;;;4.92;61.80
39487;BME280;25173;50.430;18.926;2023-03-03T17:00:20;98472.81;;;4.90;61.80
39487;BME280;25173;50.430;18.926;2023-03-03T17:03:33;98477.84;;;4.87;61.77
39487;BME280;25173;50.430;18.926;2023-03-03T17:06:59;98492.47;;;4.79;62.12
39487;BME280;25173;50.430;18.926;2023-03-03T17:13:53;98496.44;;;4.77;61.77
39487;BME280;25173;50.430;18.926;2023-03-03T17:20:22;98500.59;;;4.61;61.56
39487;BME280;25173;50.430;18.926;2023-03-03T17:29:54;98500.47;;;4.56;61.77
39487;BME280;25173;50.430;18.926;2023-03-03T17:42:42;98508.56;;;4.56;61.88
39487;BME280;25173;50.430;18.926;2023-03-03T17:45:48;98501.66;;;4.60;61.99
39487;BME280;25173;50.430;18.926;2023-03-03T17:52:29;98491.38;;;4.68;62.31
39487;BME280;25173;50.430;18.926;2023-03-03T17:59:14;98496.69;;;4.75;62.19
39487;BME280;25173;50.430;18.926;2023-03-03T18:02:29;98490.44;;;4.75;62.11
39487;BME280;25173;50.430;18.926;2023-03-03T18:09:07;98492.38;;;4.56;62.54
39487;BME280;25173;50.430;18.926;2023-03-03T18:22:06;98508.13;;;4.41;62.09
39487;BME280;25173;50.430;18.926;2023-03-03T18:25:25;98503.03;;;4.33;62.30
39487;BME280;25173;50.430;18.926;2023-03-03T18:28:47;98495.09;;;4.38;62.34
39487;BME280;25173;50.430;18.926;2023-03-03T18:35:29;98494.22;;;4.44;62.64
39487;BME280;25173;50.430;18.926;2023-03-03T18:38:35;98488.50;;;4.34;62.56
39487;BME280;25173;50.430;18.926;2023-03-03T18:42:03;98493.91;;;4.34;62.95
39487;BME280;25173;50.430;18.926;2023-03-03T18:48:44;98485.16;;;4.20;64.00
39487;BME280;25173;50.430;18.926;2023-03-03T18:51:48;98479.16;;;4.18;63.93
39487;BME280;25173;50.430;18.926;2023-03-03T19:04:34;98483.44;;;4.07;63.94
39487;BME280;25173;50.430;18.926;2023-03-03T19:10:42;98488.84;;;4.07;64.19
39487;BME280;25173;50.430;18.926;2023-03-03T19:13:43;98490.47;;;3.90;64.40
39487;BME280;25173;50.430;18.926;2023-03-03T19:16:46;98499.59;;;3.89;64.79
39487;BME280;25173;50.430;18.926;2023-03-03T19:20:11;98488.28;;;3.80;65.35
39487;BME280;25173;50.430;18.926;2023-03-03T19:23:21;98490.13;;;3.80;65.12
39487;BME280;25173;50.430;18.926;2023-03-03T19:32:54;98490.31;;;3.85;65.11
39487;BME280;25173;50.430;18.926;2023-03-03T19:36:03;98492.31;;;3.89;64.95
39487;BME280;25173;50.430;18.926;2023-03-03T19:39:32;98500.94;;;3.98;65.32
39487;BME280;25173;50.430;18.926;2023-03-03T19:46:01;98499.31;;;3.97;64.82
39487;BME280;25173;50.430;18.926;2023-03-03T19:49:25;98497.66;;;3.96;64.68
39487;BME280;25173;50.430;18.926;2023-03-03T19:52:42;98500.88;;;4.05;64.66
39487;BME280;25173;50.430;18.926;2023-03-03T19:56:09;98492.88;;;3.98;65.19
39487;BME280;25173;50.430;18.926;2023-03-03T19:59:39;98480.13;;;4.05;65.07
39487;BME280;25173;50.430;18.926;2023-03-03T20:06:33;98498.25;;;3.98;65.41
39487;BME280;25173;50.430;18.926;2023-03-03T20:09:58;98487.97;;;3.88;65.82
39487;BME280;25173;50.430;18.926;2023-03-03T20:16:36;98492.13;;;3.91;65.05
39487;BME280;25173;50.430;18.926;2023-03-03T20:23:20;98482.81;;;3.87;65.14
39487;BME280;25173;50.430;18.926;2023-03-03T20:33:25;98481.63;;;3.83;65.30
39487;BME280;25173;50.430;18.926;2023-03-03T20:39:49;98479.91;;;3.88;65.27
39487;BME280;25173;50.430;18.926;2023-03-03T21:03:36;98445.56;;;4.20;64.69
39487;BME280;25173;50.430;18.926;2023-03-03T21:06:37;98447.19;;;4.21;64.39
39487;BME280;25173;50.430;18.926;2023-03-03T21:09:40;98446.28;;;4.27;64.29
39487;BME280;25173;50.430;18.926;2023-03-03T21:12:41;98448.47;;;4.19;64.57
39487;BME280;25173;50.430;18.926;2023-03-03T21:15:42;98452.91;;;4.13;64.61
39487;BME280;25173;50.430;18.926;2023-03-03T21:18:58;98457.91;;;4.10;64.64
39487;BME280;25173;50.430;18.926;2023-03-03T21:22:00;98447.06;;;3.98;64.72
39487;BME280;25173;50.430;18.926;2023-03-03T21:25:01;98446.31;;;3.91;64.64
39487;BME280;25173;50.430;18.926;2023-03-03T21:28:35;98440.59;;;3.81;65.18
39487;BME280;25173;50.430;18.926;2023-03-03T21:31:47;98435.84;;;3.83;65.11
39487;BME280;25173;50.430;18.926;2023-03-03T21:35:20;98434.53;;;3.85;65.06
39487;BME280;25173;50.430;18.926;2023-03-03T21:38:31;98430.13;;;3.73;65.18
39487;BME280;25173;50.430;18.926;2023-03-03T21:41:53;98438.22;;;3.73;65.58
39487;BME280;25173;50.430;18.926;2023-03-03T21:44:54;98415.19;;;3.77;65.11